Aviation Digital Data Service (ADDS)

Output produced by METARs form (0335 UTC 28 June 2017)
found at http://www.aviationweather.gov/adds/metars/
 
KSIF 280325Z AUTO 00000KT 10SM CLR 13/13 A3012 RMK AO2 T01270127